Time;durP1;ratioP1;P1;durP2;ratioP2;P2;SDS_P1;SDS_P2;PMS_P1;PMS_P2;Temp;Humidity;BMP_temperature;BMP_pressure;BME280_temperature;BME280_humidity;BME280_pressure;Samples;Min_cycle;Max_cycle;Signal;HPM_P1;HPM_P2
2022/10/27 00:01:37;;;;;;;0.00;0.00;;;14.20;99.90;;;;;;5079093;28;20059;-82
2022/10/27 00:04:02;;;;;;;0.00;0.00;;;14.30;99.90;;;;;;5078927;28;20131;-82
2022/10/27 00:06:28;;;;;;;0.10;0.00;;;14.20;99.90;;;;;;5096086;28;20402;-81
2022/10/27 00:08:54;;;;;;;0.00;0.00;;;14.20;99.90;;;;;;5095597;28;20047;-81
2022/10/27 00:11:19;;;;;;;0.10;0.00;;;14.20;99.90;;;;;;5095568;28;20044;-81
2022/10/27 00:13:45;;;;;;;0.00;0.00;;;14.30;99.90;;;;;;5095592;28;20126;-82
2022/10/27 00:16:16;;;;;;;0.40;0.15;;;14.30;99.90;;;;;;5079262;28;20055;-81
2022/10/27 00:18:45;;;;;;;0.80;0.25;;;14.20;99.90;;;;;;5095701;28;20032;-81
2022/10/27 00:21:16;;;;;;;0.00;0.00;;;14.30;99.90;;;;;;5095969;28;20047;-82
2022/10/27 00:23:42;;;;;;;0.10;0.03;;;14.20;99.90;;;;;;5078612;28;20476;-82
2022/10/27 00:26:12;;;;;;;0.00;0.00;;;14.20;99.90;;;;;;5077705;28;20048;-82
2022/10/27 00:28:38;;;;;;;0.00;0.00;;;14.20;99.90;;;;;;5095447;28;20394;-82
2022/10/27 00:31:09;;;;;;;0.00;0.00;;;14.30;99.90;;;;;;5095668;28;20051;-82
2022/10/27 00:33:35;;;;;;;0.00;0.00;;;14.30;99.90;;;;;;5079057;28;20385;-82
2022/10/27 00:36:05;;;;;;;1.98;0.10;;;14.30;99.90;;;;;;5078310;28;20093;-82
2022/10/27 00:38:32;;;;;;;0.00;0.00;;;14.30;99.90;;;;;;5078219;28;20139;-82
2022/10/27 00:40:57;;;;;;;0.00;0.00;;;14.40;99.90;;;;;;5094716;28;20134;-82
2022/10/27 00:43:26;;;;;;;0.00;0.00;;;14.40;99.90;;;;;;5095028;28;20178;-82
2022/10/27 00:45:52;;;;;;;0.00;0.00;;;14.40;99.90;;;;;;5095533;28;20153;-82
2022/10/27 00:48:18;;;;;;;0.20;0.03;;;14.30;99.90;;;;;;5095004;28;20075;-82
2022/10/27 00:50:45;;;;;;;0.00;0.00;;;14.40;99.90;;;;;;5078179;28;20553;-82
2022/10/27 00:53:10;;;;;;;0.50;0.13;;;14.40;99.90;;;;;;5094896;28;20050;-82
2022/10/27 00:55:38;;;;;;;0.00;0.00;;;14.40;99.90;;;;;;5094854;28;20471;-81
2022/10/27 00:58:16;;;;;;;0.00;0.00;;;14.40;99.90;;;;;;5094684;28;20079;-82
2022/10/27 01:00:42;;;;;;;0.00;0.00;;;14.40;99.90;;;;;;5095049;28;20105;-82
2022/10/27 01:03:11;;;;;;;0.00;0.00;;;14.40;99.90;;;;;;5094800;28;20048;-81
2022/10/27 01:05:39;;;;;;;0.65;0.38;;;14.40;99.90;;;;;;5094599;28;20036;-82
2022/10/27 01:08:06;;;;;;;0.20;0.20;;;14.40;99.90;;;;;;5094658;28;20054;-82
2022/10/27 01:10:32;;;;;;;0.10;0.00;;;14.40;99.90;;;;;;5077662;28;20040;-81
2022/10/27 01:12:59;;;;;;;0.00;0.00;;;14.50;99.90;;;;;;5095170;28;20444;-82
2022/10/27 01:15:45;;;;;;;0.10;0.10;;;14.30;99.90;;;;;;5077652;28;20084;-82
2022/10/27 01:18:43;;;;;;;0.00;0.00;;;14.40;99.90;;;;;;5094545;28;20093;-82
2022/10/27 01:21:11;;;;;;;0.00;0.00;;;14.50;99.90;;;;;;5086097;28;20139;-82
2022/10/27 01:24:02;;;;;;;0.00;0.00;;;14.40;99.90;;;;;;5077069;28;20052;-82
2022/10/27 01:26:56;;;;;;;0.00;0.00;;;14.40;99.90;;;;;;5077067;28;20051;-82
2022/10/27 01:29:38;;;;;;;0.00;0.00;;;14.40;99.90;;;;;;5094292;28;20100;-81
2022/10/27 01:32:28;;;;;;;0.00;0.00;;;14.40;99.90;;;;;;5094672;28;20048;-82
2022/10/27 01:35:16;;;;;;;0.00;0.00;;;14.40;99.90;;;;;;5093937;28;20044;-82
2022/10/27 01:37:53;;;;;;;0.35;0.25;;;14.40;99.90;;;;;;5077612;28;20040;-82
2022/10/27 01:40:34;;;;;;;0.08;0.08;;;14.30;99.90;;;;;;5076398;28;20051;-82
2022/10/27 01:43:07;;;;;;;0.00;0.00;;;14.40;99.90;;;;;;5093981;28;20048;-81
2022/10/27 01:45:36;;;;;;;0.00;0.00;;;14.50;99.90;;;;;;5093716;28;20054;-82
2022/10/27 01:48:04;;;;;;;0.00;0.00;;;14.40;99.90;;;;;;5076820;28;20048;-81
2022/10/27 01:50:34;;;;;;;0.00;0.00;;;14.40;99.90;;;;;;5077181;28;20059;-81
2022/10/27 01:52:59;;;;;;;0.47;0.20;;;14.40;99.90;;;;;;5076659;28;20093;-81
2022/10/27 01:55:25;;;;;;;0.00;0.00;;;14.50;99.90;;;;;;5093752;28;20036;-82
2022/10/27 01:58:12;;;;;;;0.00;0.00;;;14.50;99.90;;;;;;5093597;28;20047;-81
2022/10/27 02:00:53;;;;;;;0.00;0.00;;;14.50;99.90;;;;;;5093557;28;20480;-81
2022/10/27 02:03:28;;;;;;;0.20;0.20;;;14.50;99.90;;;;;;5077278;28;20052;-82
2022/10/27 02:06:06;;;;;;;0.00;0.00;;;14.50;99.90;;;;;;5093509;28;20047;-82
2022/10/27 02:08:31;;;;;;;0.22;0.10;;;14.50;99.90;;;;;;5076629;28;20511;-82
2022/10/27 02:11:08;;;;;;;0.05;0.00;;;14.60;99.90;;;;;;5093310;28;20040;-81
2022/10/27 02:13:36;;;;;;;0.20;0.00;;;14.60;99.90;;;;;;5077101;28;20048;-82
2022/10/27 02:16:06;;;;;;;0.00;0.00;;;14.60;99.90;;;;;;5076587;28;20043;-81
2022/10/27 02:18:38;;;;;;;5.03;0.82;;;14.60;99.90;;;;;;5076676;28;20056;-82
2022/10/27 02:21:07;;;;;;;0.00;0.00;;;14.60;99.90;;;;;;5093425;28;20043;-82
2022/10/27 02:23:34;;;;;;;0.00;0.00;;;14.60;99.90;;;;;;5076288;28;20051;-81
2022/10/27 02:26:10;;;;;;;0.00;0.00;;;14.50;99.90;;;;;;5093682;28;20083;-82
2022/10/27 02:28:51;;;;;;;0.00;0.00;;;14.50;99.90;;;;;;5076779;28;20043;-82
2022/10/27 02:31:20;;;;;;;0.00;0.00;;;14.50;99.90;;;;;;5076385;28;20491;-81
2022/10/27 02:33:46;;;;;;;0.00;0.00;;;14.40;99.90;;;;;;5093048;28;20043;-82
2022/10/27 02:36:12;;;;;;;0.00;0.00;;;14.40;99.90;;;;;;5076504;28;20040;-82
2022/10/27 02:38:37;;;;;;;0.00;0.00;;;14.40;99.90;;;;;;5093219;28;20491;-82
2022/10/27 02:41:03;;;;;;;0.10;0.10;;;14.30;99.90;;;;;;5075522;28;20086;-82
2022/10/27 02:43:29;;;;;;;0.00;0.00;;;14.30;99.90;;;;;;5092963;28;20058;-82
2022/10/27 02:45:54;;;;;;;0.00;0.00;;;14.20;99.90;;;;;;5092824;28;20044;-82
2022/10/27 02:48:20;;;;;;;0.00;0.00;;;14.10;99.90;;;;;;5092820;28;20044;-82
2022/10/27 02:50:46;;;;;;;0.47;0.10;;;14.10;99.90;;;;;;5076164;28;20052;-82
2022/10/27 02:53:11;;;;;;;0.00;0.00;;;14.10;99.90;;;;;;5076395;28;20048;-82
2022/10/27 02:55:37;;;;;;;0.00;0.00;;;14.10;99.90;;;;;;5092716;28;20510;-82
2022/10/27 02:58:02;;;;;;;0.00;0.00;;;14.10;99.90;;;;;;5076169;28;20090;-82
2022/10/27 03:00:28;;;;;;;0.00;0.00;;;14.00;99.90;;;;;;5092756;28;20387;-82
2022/10/27 03:02:54;;;;;;;0.00;0.00;;;14.10;99.90;;;;;;5092720;28;20043;-81
2022/10/27 03:05:19;;;;;;;0.75;0.00;;;14.10;99.90;;;;;;5092940;28;20048;-82
2022/10/27 03:07:45;;;;;;;0.00;0.00;;;14.00;99.90;;;;;;5092849;28;20048;-82
2022/10/27 03:10:11;;;;;;;0.20;0.00;;;13.90;99.90;;;;;;5076116;28;20056;-81
2022/10/27 03:12:36;;;;;;;1.30;0.43;;;13.90;99.90;;;;;;5092705;28;20047;-81
2022/10/27 03:15:02;;;;;;;1.20;0.38;;;13.90;99.90;;;;;;5092580;28;20072;-82
2022/10/27 03:17:27;;;;;;;0.08;0.08;;;13.90;99.90;;;;;;5092711;28;20051;-82
2022/10/27 03:19:53;;;;;;;0.00;0.00;;;13.90;99.90;;;;;;5092420;28;20047;-82
2022/10/27 03:22:19;;;;;;;0.00;0.00;;;13.80;99.90;;;;;;5092634;28;20146;-82
2022/10/27 03:24:44;;;;;;;0.00;0.00;;;13.80;99.90;;;;;;5092657;28;20054;-82
2022/10/27 03:27:10;;;;;;;0.00;0.00;;;13.70;99.90;;;;;;5092542;28;20047;-82
2022/10/27 03:29:35;;;;;;;0.10;0.10;;;13.70;99.90;;;;;;5092502;28;20047;-82
2022/10/27 03:32:01;;;;;;;0.00;0.00;;;13.70;99.90;;;;;;5075652;28;20087;-82
2022/10/27 03:34:27;;;;;;;1.52;0.68;;;13.60;99.90;;;;;;5091914;28;20062;-81
2022/10/27 03:36:52;;;;;;;0.00;0.00;;;13.60;99.90;;;;;;5092522;28;20044;-82
2022/10/27 03:39:18;;;;;;;1.45;0.52;;;13.70;99.90;;;;;;5092381;28;20115;-82
2022/10/27 03:41:44;;;;;;;0.00;0.00;;;13.60;99.90;;;;;;5075736;28;20044;-81
2022/10/27 03:44:09;;;;;;;0.00;0.00;;;13.60;99.90;;;;;;5075730;28;20148;-82
2022/10/27 03:46:35;;;;;;;0.05;0.00;;;13.60;99.90;;;;;;5075446;28;20044;-81
2022/10/27 03:49:00;;;;;;;0.03;0.03;;;13.70;99.90;;;;;;5075731;28;20056;-81
2022/10/27 03:51:26;;;;;;;0.00;0.00;;;13.70;99.90;;;;;;5092583;28;20169;-81
2022/10/27 03:53:52;;;;;;;3.92;0.43;;;13.60;99.90;;;;;;5092379;28;20051;-81
2022/10/27 03:56:17;;;;;;;0.00;0.00;;;13.70;99.90;;;;;;5075564;28;20043;-82
2022/10/27 03:58:43;;;;;;;0.00;0.00;;;13.70;99.90;;;;;;5075487;28;20048;-81
2022/10/27 04:01:09;;;;;;;0.00;0.00;;;13.60;99.90;;;;;;5093029;28;20040;-81
2022/10/27 04:03:35;;;;;;;0.00;0.00;;;13.60;99.90;;;;;;5095837;28;20123;-81
2022/10/27 04:06:00;;;;;;;0.00;0.00;;;13.70;99.90;;;;;;5095480;28;20186;-82
2022/10/27 04:08:26;;;;;;;0.00;0.00;;;13.60;99.90;;;;;;5078688;28;20408;-81
2022/10/27 04:10:51;;;;;;;0.15;0.15;;;13.60;99.90;;;;;;5078862;28;20063;-82
2022/10/27 04:13:17;;;;;;;0.00;0.00;;;13.60;99.90;;;;;;5095605;28;20036;-82
2022/10/27 04:15:43;;;;;;;0.00;0.00;;;13.60;99.90;;;;;;5078549;28;20127;-81
2022/10/27 04:18:09;;;;;;;0.00;0.00;;;13.60;99.90;;;;;;5095526;28;20390;-81
2022/10/27 04:20:35;;;;;;;0.30;0.13;;;13.60;99.90;;;;;;5095170;28;20052;-82
2022/10/27 04:23:01;;;;;;;0.43;0.43;;;13.50;99.90;;;;;;5095680;28;20043;-82
2022/10/27 04:25:27;;;;;;;0.88;0.30;;;13.50;99.90;;;;;;5095651;28;20130;-81
2022/10/27 04:28:07;;;;;;;0.00;0.00;;;13.60;99.90;;;;;;5095151;28;20076;-82
2022/10/27 04:30:33;;;;;;;0.00;0.00;;;13.50;99.90;;;;;;5095356;28;20123;-81
2022/10/27 04:32:59;;;;;;;0.00;0.00;;;13.50;99.90;;;;;;5095283;28;20047;-82
2022/10/27 04:35:25;;;;;;;0.00;0.00;;;13.50;99.90;;;;;;5078455;28;20040;-81
2022/10/27 04:37:50;;;;;;;0.00;0.00;;;13.50;99.90;;;;;;5078863;28;20052;-81
2022/10/27 04:40:16;;;;;;;0.30;0.30;;;13.50;99.90;;;;;;5078225;28;20052;-82
2022/10/27 04:42:45;;;;;;;0.00;0.00;;;13.40;99.90;;;;;;5094991;28;20055;-81
2022/10/27 04:45:12;;;;;;;11.50;1.17;;;13.40;99.90;;;;;;5077772;28;20403;-81
2022/10/27 04:47:37;;;;;;;0.00;0.00;;;13.50;99.90;;;;;;5094966;28;20044;-81
2022/10/27 04:50:04;;;;;;;0.00;0.00;;;13.40;99.90;;;;;;5078639;28;20098;-81
2022/10/27 04:52:30;;;;;;;0.00;0.00;;;13.40;99.90;;;;;;5094752;28;20373;-82
2022/10/27 04:54:55;;;;;;;0.20;0.20;;;13.50;99.90;;;;;;5094929;28;20055;-81
2022/10/27 04:57:21;;;;;;;0.00;0.00;;;13.30;99.90;;;;;;5077874;28;20126;-81
2022/10/27 04:59:47;;;;;;;0.40;0.10;;;13.40;99.90;;;;;;5077873;28;20052;-81
2022/10/27 05:02:12;;;;;;;0.00;0.00;;;13.30;99.90;;;;;;5094722;28;20038;-81
2022/10/27 05:04:38;;;;;;;0.00;0.00;;;13.30;99.90;;;;;;5095190;28;20040;-82
2022/10/27 05:07:03;;;;;;;0.00;0.00;;;13.30;99.90;;;;;;5077054;28;20040;-82
2022/10/27 05:09:29;;;;;;;0.00;0.00;;;13.20;99.90;;;;;;5077621;28;20515;-82
2022/10/27 05:11:55;;;;;;;0.00;0.00;;;13.20;99.90;;;;;;5094195;28;20044;-82
2022/10/27 05:14:20;;;;;;;0.00;0.00;;;13.20;99.90;;;;;;5094388;28;20396;-82
2022/10/27 05:16:46;;;;;;;0.00;0.00;;;13.20;99.90;;;;;;5094425;28;20102;-82
2022/10/27 05:19:11;;;;;;;0.00;0.00;;;13.20;99.90;;;;;;5094388;28;20058;-82
2022/10/27 05:21:37;;;;;;;0.00;0.00;;;13.10;99.90;;;;;;5094333;28;20529;-82
2022/10/27 05:24:03;;;;;;;0.00;0.00;;;13.20;99.90;;;;;;5094213;28;20117;-82
2022/10/27 05:26:29;;;;;;;0.10;0.10;;;13.20;99.90;;;;;;5077099;28;20051;-82
2022/10/27 05:28:54;;;;;;;0.00;0.00;;;13.10;99.90;;;;;;5077224;28;20044;-82
2022/10/27 05:31:20;;;;;;;0.10;0.08;;;13.10;99.90;;;;;;5094170;28;20156;-82
2022/10/27 05:33:46;;;;;;;0.00;0.00;;;13.10;99.90;;;;;;5094268;28;20044;-82
2022/10/27 05:36:11;;;;;;;0.00;0.00;;;13.10;99.90;;;;;;5077292;28;20036;-82
2022/10/27 05:38:38;;;;;;;0.00;0.00;;;13.00;99.90;;;;;;5077034;28;20400;-82
2022/10/27 05:41:04;;;;;;;0.15;0.00;;;13.00;99.90;;;;;;5076442;28;20564;-82
2022/10/27 05:43:29;;;;;;;0.00;0.00;;;13.00;99.90;;;;;;5076726;28;20047;-82
2022/10/27 05:45:55;;;;;;;0.00;0.00;;;13.00;99.90;;;;;;5093662;28;20048;-82
2022/10/27 05:48:21;;;;;;;0.00;0.00;;;13.10;99.90;;;;;;5094056;28;20036;-82
2022/10/27 05:50:52;;;;;;;0.05;0.00;;;13.10;99.90;;;;;;5076703;28;20047;-82
2022/10/27 05:53:17;;;;;;;0.00;0.00;;;13.00;99.90;;;;;;5093804;28;20056;-82
2022/10/27 05:55:43;;;;;;;0.00;0.00;;;13.00;99.90;;;;;;5093701;28;20050;-82
2022/10/27 05:58:10;;;;;;;0.00;0.00;;;13.00;99.90;;;;;;5076999;28;20117;-82
2022/10/27 06:00:37;;;;;;;0.10;0.10;;;13.00;99.90;;;;;;5076874;28;20048;-84
2022/10/27 06:03:06;;;;;;;7.05;0.57;;;13.00;99.90;;;;;;5076727;28;20040;-89
2022/10/27 06:05:34;;;;;;;0.00;0.00;;;13.00;99.90;;;;;;5076370;28;20504;-82
2022/10/27 06:07:59;;;;;;;0.00;0.00;;;13.00;99.90;;;;;;5076382;28;20134;-82
2022/10/27 06:10:28;;;;;;;0.00;0.00;;;13.00;99.90;;;;;;5093386;28;20131;-82
2022/10/27 06:13:03;;;;;;;0.00;0.00;;;13.00;99.90;;;;;;5093476;28;20047;-82
2022/10/27 06:15:30;;;;;;;0.00;0.00;;;13.00;99.90;;;;;;5094320;28;20549;-82
2022/10/27 06:17:56;;;;;;;0.03;0.03;;;13.00;99.90;;;;;;5076517;28;20089;-82
2022/10/27 06:20:23;;;;;;;0.00;0.00;;;13.00;99.90;;;;;;5093419;28;20094;-82
2022/10/27 06:22:49;;;;;;;0.70;0.15;;;13.10;99.90;;;;;;5093395;28;20067;-82
2022/10/27 06:25:14;;;;;;;0.00;0.00;;;13.10;99.90;;;;;;5075842;28;20468;-82
2022/10/27 06:27:40;;;;;;;0.00;0.00;;;13.10;99.90;;;;;;5076618;28;20048;-82
2022/10/27 06:30:06;;;;;;;0.00;0.00;;;13.10;99.90;;;;;;5092821;28;20055;-82
2022/10/27 06:32:39;;;;;;;0.10;0.00;;;13.10;99.90;;;;;;5092837;28;20063;-82
2022/10/27 06:35:05;;;;;;;0.08;0.00;;;13.10;99.90;;;;;;5076422;28;20055;-82
2022/10/27 06:37:31;;;;;;;0.00;0.00;;;13.20;99.90;;;;;;5075906;28;20499;-82
2022/10/27 06:39:57;;;;;;;0.00;0.00;;;13.20;99.90;;;;;;5092865;28;20040;-82
2022/10/27 06:42:23;;;;;;;0.00;0.00;;;13.20;99.90;;;;;;5076116;28;20044;-82
2022/10/27 06:44:49;;;;;;;0.00;0.00;;;13.30;99.90;;;;;;5076306;28;20052;-82
2022/10/27 06:47:15;;;;;;;0.10;0.10;;;13.20;99.90;;;;;;5092852;28;20105;-82
2022/10/27 06:49:40;;;;;;;2.92;0.65;;;13.30;99.90;;;;;;5092473;28;20048;-82
2022/10/27 06:52:06;;;;;;;0.40;0.00;;;13.40;99.90;;;;;;5092502;28;20052;-82
2022/10/27 06:54:32;;;;;;;0.00;0.00;;;13.30;99.90;;;;;;5092827;28;20471;-83
2022/10/27 06:56:57;;;;;;;0.20;0.13;;;13.40;99.90;;;;;;5076216;28;20060;-83
2022/10/27 06:59:23;;;;;;;0.00;0.00;;;13.40;99.90;;;;;;5076656;28;20063;-83
2022/10/27 07:01:48;;;;;;;0.00;0.00;;;13.40;99.90;;;;;;5092893;28;20044;-82
2022/10/27 07:04:14;;;;;;;3.92;0.00;;;13.50;99.90;;;;;;5076146;28;20423;-83
2022/10/27 07:06:40;;;;;;;0.00;0.00;;;13.50;99.90;;;;;;5092398;28;20040;-82
2022/10/27 07:09:05;;;;;;;0.00;0.00;;;13.50;99.90;;;;;;5092784;28;20036;-82
2022/10/27 07:11:31;;;;;;;0.00;0.00;;;13.60;99.90;;;;;;5075826;28;20040;-82
2022/10/27 07:13:57;;;;;;;0.00;0.00;;;13.60;99.90;;;;;;5092706;28;20066;-82
2022/10/27 07:16:22;;;;;;;0.00;0.00;;;13.70;99.90;;;;;;5092716;28;20048;-82
2022/10/27 07:18:48;;;;;;;0.08;0.08;;;13.80;99.90;;;;;;5092835;28;20043;-82
2022/10/27 07:21:15;;;;;;;0.30;0.25;;;13.80;99.90;;;;;;5075275;28;20100;-81
2022/10/27 07:23:40;;;;;;;0.00;0.00;;;13.90;99.90;;;;;;5075766;28;20127;-82
2022/10/27 07:26:06;;;;;;;0.00;0.00;;;14.00;99.90;;;;;;5092337;28;20130;-82
2022/10/27 07:28:32;;;;;;;0.00;0.00;;;14.10;99.90;;;;;;5092552;28;20076;-82
2022/10/27 07:30:58;;;;;;;0.00;0.00;;;14.10;99.90;;;;;;5092496;28;20040;-82
2022/10/27 07:33:23;;;;;;;0.00;0.00;;;14.20;99.90;;;;;;5092416;28;20063;-82
2022/10/27 07:35:50;;;;;;;0.28;0.10;;;14.30;99.90;;;;;;5077504;28;20042;-82
2022/10/27 07:38:17;;;;;;;0.47;0.17;;;14.30;99.90;;;;;;5080200;28;20098;-81
2022/10/27 07:40:42;;;;;;;0.80;0.57;;;14.30;99.90;;;;;;5078934;28;20067;-82
2022/10/27 07:43:08;;;;;;;1.30;0.45;;;14.40;99.90;;;;;;5096074;28;20392;-81
2022/10/27 07:45:36;;;;;;;0.00;0.00;;;14.50;99.90;;;;;;5079475;28;20044;-82
2022/10/27 07:48:02;;;;;;;0.00;0.00;;;14.50;99.90;;;;;;5079336;28;20083;-82
2022/10/27 07:50:28;;;;;;;0.15;0.15;;;14.50;99.90;;;;;;5095903;28;20079;-82
2022/10/27 07:52:55;;;;;;;1.35;0.20;;;14.60;99.90;;;;;;5079587;28;20455;-81
2022/10/27 07:55:23;;;;;;;0.00;0.00;;;14.50;99.90;;;;;;5079224;28;20048;-82
2022/10/27 07:58:01;;;;;;;0.32;0.20;;;14.70;99.90;;;;;;5095969;28;20083;-81
2022/10/27 08:00:28;;;;;;;0.00;0.00;;;14.70;99.90;;;;;;5079238;28;20075;-82
2022/10/27 08:02:54;;;;;;;0.00;0.00;;;14.80;99.90;;;;;;5096031;28;20100;-82
2022/10/27 08:05:20;;;;;;;0.00;0.00;;;14.80;99.90;;;;;;5078987;28;20040;-82
2022/10/27 08:07:46;;;;;;;0.60;0.10;;;14.80;99.90;;;;;;5079149;28;20056;-82
2022/10/27 08:10:11;;;;;;;0.00;0.00;;;14.90;99.90;;;;;;5078653;28;20475;-82
2022/10/27 08:12:43;;;;;;;0.35;0.35;;;15.00;99.90;;;;;;5078948;28;20105;-82
2022/10/27 08:15:10;;;;;;;0.05;0.00;;;15.00;99.90;;;;;;5095688;28;20052;-82
2022/10/27 08:17:37;;;;;;;0.43;0.20;;;15.10;99.90;;;;;;5095666;28;20122;-83
2022/10/27 08:20:03;;;;;;;0.10;0.10;;;15.40;99.90;;;;;;5078702;28;20105;-83
2022/10/27 08:22:29;;;;;;;0.00;0.00;;;15.60;99.90;;;;;;5078811;28;20062;-83
2022/10/27 08:24:55;;;;;;;0.05;0.03;;;15.70;99.90;;;;;;5095103;28;20052;-83
2022/10/27 08:27:20;;;;;;;0.10;0.05;;;15.80;99.90;;;;;;5095589;28;20040;-83
2022/10/27 08:29:46;;;;;;;0.10;0.10;;;16.00;99.90;;;;;;5078505;28;20052;-83
2022/10/27 08:32:11;;;;;;;0.20;0.20;;;16.10;99.90;;;;;;5095288;28;20369;-82
2022/10/27 08:34:37;;;;;;;1.90;0.70;;;16.20;99.90;;;;;;5079148;28;20052;-83
2022/10/27 08:37:03;;;;;;;0.20;0.10;;;16.30;99.90;;;;;;5095599;28;20083;-83
2022/10/27 08:39:28;;;;;;;0.08;0.03;;;16.30;99.90;;;;;;5095239;28;20036;-83
2022/10/27 08:42:00;;;;;;;0.00;0.00;;;16.20;99.90;;;;;;5094483;28;20101;-83
2022/10/27 08:44:28;;;;;;;0.90;0.28;;;16.20;99.90;;;;;;5078343;28;20048;-83
2022/10/27 08:46:58;;;;;;;0.00;0.00;;;16.20;99.90;;;;;;5077911;28;20131;-83
2022/10/27 08:49:35;;;;;;;0.00;0.00;;;16.20;99.90;;;;;;5095659;28;20040;-83
2022/10/27 08:52:18;;;;;;;3.13;0.20;;;16.10;99.90;;;;;;5094822;28;20079;-83
2022/10/27 08:54:50;;;;;;;0.00;0.00;;;16.00;99.90;;;;;;5094547;28;20040;-82
2022/10/27 08:57:23;;;;;;;0.00;0.00;;;16.20;99.90;;;;;;5076452;28;20059;-83
2022/10/27 08:59:52;;;;;;;0.13;0.00;;;16.30;99.90;;;;;;5094210;28;20048;-83
2022/10/27 09:02:23;;;;;;;0.00;0.00;;;16.70;99.90;;;;;;5094659;28;20093;-83
2022/10/27 09:04:56;;;;;;;0.25;0.25;;;17.20;99.90;;;;;;5077720;28;20411;-82
2022/10/27 09:07:39;;;;;;;0.03;0.00;;;18.20;99.90;;;;;;5094571;28;20047;-83
2022/10/27 09:10:37;;;;;;;0.00;0.00;;;19.10;99.90;;;;;;5077944;28;20047;-83
2022/10/27 09:13:41;;;;;;;0.00;0.00;;;19.90;99.90;;;;;;5036395;28;20108;-84
2022/10/27 09:16:15;;;;;;;0.00;0.00;;;20.50;99.90;;;;;;4978018;28;20065;-83
2022/10/27 09:18:54;;;;;;;0.10;0.00;;;20.70;99.90;;;;;;4978079;28;20065;-84
2022/10/27 09:21:21;;;;;;;0.63;0.52;;;20.70;99.90;;;;;;4977684;28;20067;-83
2022/10/27 09:24:11;;;;;;;0.00;0.00;;;20.90;99.90;;;;;;4961596;28;20102;-83
2022/10/27 09:26:39;;;;;;;0.00;0.00;;;20.90;99.90;;;;;;4960172;28;20429;-84
2022/10/27 09:29:26;;;;;;;0.05;0.05;;;21.10;99.90;;;;;;4977263;28;20105;-83
2022/10/27 09:31:54;;;;;;;0.00;0.00;;;20.90;99.90;;;;;;4977442;28;20054;-84
2022/10/27 09:34:44;;;;;;;0.00;0.00;;;20.80;99.90;;;;;;4977599;28;20054;-83
2022/10/27 09:37:15;;;;;;;0.00;0.00;;;20.50;99.90;;;;;;4977819;28;20058;-85
2022/10/27 09:39:52;;;;;;;0.00;0.00;;;20.30;99.90;;;;;;4975623;28;20058;-87
2022/10/27 09:42:19;;;;;;;0.00;0.00;;;20.20;99.90;;;;;;4975108;28;20105;-88
2022/10/27 09:44:57;;;;;;;0.00;0.00;;;20.20;99.90;;;;;;4974107;28;20050;-85
2022/10/27 09:47:26;;;;;;;0.30;0.30;;;20.00;99.90;;;;;;4957059;28;20059;-83
2022/10/27 09:49:52;;;;;;;3.65;0.20;;;19.80;99.90;;;;;;4984813;28;20056;-83
2022/10/27 09:52:31;;;;;;;0.00;0.00;;;20.00;99.90;;;;;;5037794;28;20058;-83
2022/10/27 09:54:57;;;;;;;0.20;0.00;;;20.00;99.90;;;;;;5094007;28;20446;-83
2022/10/27 09:57:28;;;;;;;0.00;0.00;;;20.00;99.90;;;;;;5093619;28;20044;-83
2022/10/27 10:00:20;;;;;;;0.55;0.30;;;20.20;99.90;;;;;;5092934;28;20392;-84
2022/10/27 10:03:16;;;;;;;0.00;0.00;;;20.30;99.90;;;;;;5076333;28;20039;-84
2022/10/27 10:05:43;;;;;;;;;;;20.00;99.90;;;;;;5093974;28;20044;-83
2022/10/27 10:08:26;;;;;;;0.00;0.00;;;20.00;99.90;;;;;;5092728;28;19920;-83
2022/10/27 10:11:00;;;;;;;0.00;0.00;;;19.90;99.90;;;;;;5076818;28;20055;-83
2022/10/27 10:13:30;;;;;;;;;;;19.80;99.90;;;;;;5076823;28;20101;-84
2022/10/27 10:16:14;;;;;;;0.15;0.10;;;19.80;99.90;;;;;;5076485;28;19924;-84
2022/10/27 10:18:45;;;;;;;0.00;0.00;;;19.80;99.90;;;;;;5076452;28;20040;-84
2022/10/27 10:21:12;;;;;;;0.00;0.00;;;20.00;99.90;;;;;;5093346;28;20043;-84
2022/10/27 10:23:47;;;;;;;0.00;0.00;;;20.10;99.90;;;;;;5076118;28;20105;-83
2022/10/27 10:26:31;;;;;;;0.08;0.00;;;20.20;99.90;;;;;;5093015;28;20048;-84
2022/10/27 10:29:26;;;;;;;0.08;0.08;;;20.30;99.90;;;;;;5093131;28;20044;-84
2022/10/27 10:32:12;;;;;;;0.57;0.08;;;20.30;99.90;;;;;;5076435;28;20494;-84
2022/10/27 10:34:39;;;;;;;0.00;0.00;;;20.50;99.90;;;;;;5092532;28;20091;-84
2022/10/27 10:37:27;;;;;;;0.22;0.20;;;20.70;99.90;;;;;;5092943;28;20093;-84
2022/10/27 10:39:53;;;;;;;0.05;0.00;;;20.80;99.90;;;;;;5092864;28;20059;-84
2022/10/27 10:42:18;;;;;;;0.00;0.00;;;20.70;99.90;;;;;;5092944;28;20403;-84
2022/10/27 10:44:44;;;;;;;0.10;0.10;;;20.60;99.90;;;;;;5076125;28;20097;-83
2022/10/27 10:47:26;;;;;;;0.20;0.10;;;20.50;99.90;;;;;;5092528;28;20036;-84
2022/10/27 10:49:55;;;;;;;0.25;0.13;;;20.30;99.90;;;;;;5076329;28;20087;-84
2022/10/27 10:52:25;;;;;;;0.00;0.00;;;20.20;99.90;;;;;;5092901;28;20123;-83
2022/10/27 10:54:51;;;;;;;0.03;0.03;;;20.00;99.90;;;;;;5085051;28;20044;-84
2022/10/27 10:57:36;;;;;;;0.03;0.03;;;20.00;99.90;;;;;;5092684;28;20124;-84
2022/10/27 11:00:05;;;;;;;0.00;0.00;;;20.00;99.90;;;;;;5075756;28;20081;-84
2022/10/27 11:02:32;;;;;;;0.00;0.00;;;19.90;99.90;;;;;;5076644;28;20499;-84
2022/10/27 11:05:11;;;;;;;0.00;0.00;;;19.80;99.90;;;;;;5092504;28;20044;-84
2022/10/27 11:07:39;;;;;;;0.05;0.05;;;19.80;99.90;;;;;;5092717;28;20048;-84
2022/10/27 11:10:13;;;;;;;0.00;0.00;;;19.80;99.90;;;;;;5093062;28;20083;-84
2022/10/27 11:12:50;;;;;;;;;;;19.80;99.90;;;;;;5079929;28;20052;-84
2022/10/27 11:15:30;;;;;;;0.10;0.10;;;19.80;99.90;;;;;;5095903;28;19967;-83
2022/10/27 11:18:30;;;;;;;0.00;0.00;;;19.90;99.90;;;;;;5096723;28;20093;-83
2022/10/27 11:21:20;;;;;;;0.00;0.00;;;20.00;99.90;;;;;;5022253;28;20096;-83
2022/10/27 11:23:52;;;;;;;0.00;0.00;;;20.10;99.90;;;;;;5039149;28;20068;-83
2022/10/27 11:26:34;;;;;;;0.00;0.00;;;20.30;99.90;;;;;;5038317;28;20460;-83
2022/10/27 11:29:25;;;;;;;0.00;0.00;;;20.30;99.90;;;;;;5038430;28;20041;-83
2022/10/27 11:32:20;;;;;;;0.08;0.00;;;20.40;99.90;;;;;;5038610;28;20155;-83
2022/10/27 11:35:25;;;;;;;0.00;0.00;;;20.30;99.90;;;;;;5038458;28;20056;-83
2022/10/27 11:38:11;;;;;;;;;;;20.30;99.90;;;;;;5038071;28;20053;-83
2022/10/27 11:40:47;;;;;;;0.00;0.00;;;20.10;99.90;;;;;;5038062;28;19970;-83
2022/10/27 11:43:18;;;;;;;0.00;0.00;;;20.00;99.90;;;;;;5038414;28;20057;-83
2022/10/27 11:46:14;;;;;;;0.00;0.00;;;20.00;99.90;;;;;;5038162;28;20443;-82
2022/10/27 11:48:47;;;;;;;0.38;0.22;;;19.90;99.90;;;;;;5038057;28;20055;-83
2022/10/27 11:51:22;;;;;;;0.03;0.03;;;19.90;99.90;;;;;;5037325;28;20056;-83
2022/10/27 11:53:51;;;;;;;0.00;0.00;;;19.80;99.90;;;;;;5037911;28;20483;-82
2022/10/27 11:56:47;;;;;;;0.70;0.15;;;19.80;99.90;;;;;;5037836;28;20055;-84
2022/10/27 11:59:26;;;;;;;0.00;0.00;;;19.80;99.90;;;;;;5096100;28;20480;-83
2022/10/27 12:02:24;;;;;;;0.00;0.00;;;19.70;99.90;;;;;;5095863;28;20127;-83
2022/10/27 12:05:16;;;;;;;1.13;0.40;;;19.70;99.90;;;;;;5094061;28;20056;-83
2022/10/27 12:08:07;;;;;;;0.10;0.08;;;19.70;99.90;;;;;;5095809;28;20124;-83
2022/10/27 12:10:42;;;;;;;0.05;0.00;;;19.60;99.90;;;;;;5078868;28;20051;-83
2022/10/27 12:13:15;;;;;;;0.00;0.00;;;19.60;99.90;;;;;;5096377;28;20040;-83
2022/10/27 12:15:49;;;;;;;0.00;0.00;;;19.70;99.90;;;;;;5079298;28;20044;-83
2022/10/27 12:18:31;;;;;;;0.00;0.00;;;19.80;99.90;;;;;;5078912;28;20131;-83
2022/10/27 12:21:19;;;;;;;0.00;0.00;;;20.00;99.90;;;;;;5078431;28;20052;-83
2022/10/27 12:23:57;;;;;;;10.70;0.55;;;20.10;99.90;;;;;;5095296;28;20035;-83
2022/10/27 12:26:36;;;;;;;0.00;0.00;;;20.20;99.90;;;;;;5079079;28;20044;-83
2022/10/27 12:29:05;;;;;;;0.00;0.00;;;20.10;99.90;;;;;;5078800;28;20079;-83
2022/10/27 12:31:38;;;;;;;0.00;0.00;;;20.10;99.90;;;;;;5095343;28;20055;-83
2022/10/27 12:34:08;;;;;;;0.10;0.10;;;20.10;99.90;;;;;;5094968;28;20048;-82
2022/10/27 12:36:45;;;;;;;0.00;0.00;;;20.30;99.90;;;;;;5078030;28;20515;-83
2022/10/27 12:39:57;;;;;;;0.00;0.00;;;20.50;99.90;;;;;;5095523;28;20052;-83
2022/10/27 12:42:26;;;;;;;0.00;0.00;;;20.60;99.90;;;;;;5077256;28;20495;-85
2022/10/27 12:45:34;;;;;;;0.00;0.00;;;20.70;99.90;;;;;;5094976;28;20093;-83
2022/10/27 12:48:05;;;;;;;0.00;0.00;;;20.60;99.90;;;;;;5020379;28;20092;-83
2022/10/27 12:50:37;;;;;;;0.00;0.00;;;20.50;99.90;;;;;;5036944;28;20610;-83
2022/10/27 12:53:20;;;;;;;0.00;0.00;;;20.40;99.90;;;;;;5036996;28;20099;-85
2022/10/27 12:56:19;;;;;;;0.00;0.00;;;20.30;99.90;;;;;;5037306;28;20056;-83
2022/10/27 12:58:53;;;;;;;0.47;0.17;;;20.30;99.90;;;;;;4977861;28;20523;-83
2022/10/27 13:01:33;;;;;;;0.00;0.00;;;20.20;99.90;;;;;;4977795;28;20446;-83
2022/10/27 13:04:27;;;;;;;1.33;0.45;;;20.20;99.90;;;;;;4978616;28;20065;-83
2022/10/27 13:07:34;;;;;;;0.00;0.00;;;20.20;99.90;;;;;;4920198;29;20154;-83
2022/10/27 13:10:33;;;;;;;0.00;0.00;;;20.20;99.90;;;;;;4848559;29;20064;-83